sensor_id;sensor_type;location;lat;lon;timestamp;temperature;humidity
27368;DHT22;14839;48.106;11.618;2022-07-29T04:01:35;17.80;94.60
27368;DHT22;14839;48.106;11.618;2022-07-29T04:04:02;17.90;94.60
27368;DHT22;14839;48.106;11.618;2022-07-29T04:06:37;18.00;94.60
27368;DHT22;14839;48.106;11.618;2022-07-29T04:09:03;18.10;94.60
27368;DHT22;14839;48.106;11.618;2022-07-29T04:11:29;18.10;94.60
27368;DHT22;14839;48.106;11.618;2022-07-29T04:13:54;18.20;94.60
27368;DHT22;14839;48.106;11.618;2022-07-29T04:16:20;18.20;94.60
27368;DHT22;14839;48.106;11.618;2022-07-29T04:18:45;18.20;94.60
27368;DHT22;14839;48.106;11.618;2022-07-29T04:21:11;18.20;94.60
27368;DHT22;14839;48.106;11.618;2022-07-29T04:23:36;18.30;94.60
27368;DHT22;14839;48.106;11.618;2022-07-29T04:26:02;18.30;94.60
27368;DHT22;14839;48.106;11.618;2022-07-29T04:28:28;18.30;94.60
27368;DHT22;14839;48.106;11.618;2022-07-29T04:30:53;18.20;94.60
27368;DHT22;14839;48.106;11.618;2022-07-29T04:33:19;18.10;94.60
27368;DHT22;14839;48.106;11.618;2022-07-29T04:35:44;18.20;94.60
27368;DHT22;14839;48.106;11.618;2022-07-29T04:38:10;18.30;94.60
27368;DHT22;14839;48.106;11.618;2022-07-29T04:40:35;18.50;94.60
27368;DHT22;14839;48.106;11.618;2022-07-29T04:43:01;18.60;94.60
27368;DHT22;14839;48.106;11.618;2022-07-29T04:45:27;18.70;94.60
27368;DHT22;14839;48.106;11.618;2022-07-29T04:47:53;18.90;94.60
27368;DHT22;14839;48.106;11.618;2022-07-29T04:50:19;19.10;94.60
27368;DHT22;14839;48.106;11.618;2022-07-29T04:52:44;19.60;94.60
27368;DHT22;14839;48.106;11.618;2022-07-29T04:55:10;20.60;93.80
27368;DHT22;14839;48.106;11.618;2022-07-29T04:57:36;22.10;90.70
27368;DHT22;14839;48.106;11.618;2022-07-29T05:00:03;23.30;86.80
27368;DHT22;14839;48.106;11.618;2022-07-29T05:02:28;24.30;79.60
27368;DHT22;14839;48.106;11.618;2022-07-29T05:04:54;25.20;77.30
27368;DHT22;14839;48.106;11.618;2022-07-29T05:07:19;26.10;71.90
27368;DHT22;14839;48.106;11.618;2022-07-29T05:09:45;26.60;70.30
27368;DHT22;14839;48.106;11.618;2022-07-29T05:12:11;27.60;66.20
27368;DHT22;14839;48.106;11.618;2022-07-29T05:14:37;27.40;66.20
27368;DHT22;14839;48.106;11.618;2022-07-29T05:17:02;27.50;67.00
27368;DHT22;14839;48.106;11.618;2022-07-29T05:19:28;27.20;67.70
27368;DHT22;14839;48.106;11.618;2022-07-29T05:21:53;27.00;64.90
27368;DHT22;14839;48.106;11.618;2022-07-29T05:24:19;26.20;67.10
27368;DHT22;14839;48.106;11.618;2022-07-29T05:26:44;26.00;70.40
27368;DHT22;14839;48.106;11.618;2022-07-29T05:29:10;25.60;70.40
27368;DHT22;14839;48.106;11.618;2022-07-29T05:31:36;25.50;70.60
27368;DHT22;14839;48.106;11.618;2022-07-29T05:34:02;24.80;73.40
27368;DHT22;14839;48.106;11.618;2022-07-29T05:36:30;24.00;76.00
27368;DHT22;14839;48.106;11.618;2022-07-29T05:38:56;23.50;79.60
27368;DHT22;14839;48.106;11.618;2022-07-29T05:41:21;23.80;80.00
27368;DHT22;14839;48.106;11.618;2022-07-29T05:43:47;25.00;75.20
27368;DHT22;14839;48.106;11.618;2022-07-29T05:46:13;26.00;75.10
27368;DHT22;14839;48.106;11.618;2022-07-29T05:48:39;26.40;71.60
27368;DHT22;14839;48.106;11.618;2022-07-29T05:51:05;27.60;67.30
27368;DHT22;14839;48.106;11.618;2022-07-29T05:53:30;28.00;65.80
27368;DHT22;14839;48.106;11.618;2022-07-29T05:55:56;28.90;61.70
27368;DHT22;14839;48.106;11.618;2022-07-29T05:58:22;28.80;59.50
27368;DHT22;14839;48.106;11.618;2022-07-29T06:00:47;28.10;61.40
27368;DHT22;14839;48.106;11.618;2022-07-29T06:03:13;28.10;60.70
27368;DHT22;14839;48.106;11.618;2022-07-29T06:05:39;26.80;65.20
27368;DHT22;14839;48.106;11.618;2022-07-29T06:08:05;26.70;67.40
27368;DHT22;14839;48.106;11.618;2022-07-29T06:10:36;27.40;67.90
27368;DHT22;14839;48.106;11.618;2022-07-29T06:13:02;28.10;64.70
27368;DHT22;14839;48.106;11.618;2022-07-29T06:15:28;28.50;64.70
27368;DHT22;14839;48.106;11.618;2022-07-29T06:17:53;28.90;61.90
27368;DHT22;14839;48.106;11.618;2022-07-29T06:20:19;29.70;60.80
27368;DHT22;14839;48.106;11.618;2022-07-29T06:22:44;28.20;60.50
27368;DHT22;14839;48.106;11.618;2022-07-29T06:25:10;27.80;64.40
27368;DHT22;14839;48.106;11.618;2022-07-29T06:27:35;27.70;61.90
27368;DHT22;14839;48.106;11.618;2022-07-29T06:30:02;28.80;64.00
27368;DHT22;14839;48.106;11.618;2022-07-29T06:32:28;29.20;60.80
27368;DHT22;14839;48.106;11.618;2022-07-29T06:34:53;29.50;59.20
27368;DHT22;14839;48.106;11.618;2022-07-29T06:37:19;29.50;57.60
27368;DHT22;14839;48.106;11.618;2022-07-29T06:39:44;29.10;62.60
27368;DHT22;14839;48.106;11.618;2022-07-29T06:42:10;29.50;58.20
27368;DHT22;14839;48.106;11.618;2022-07-29T06:44:36;29.90;58.90
27368;DHT22;14839;48.106;11.618;2022-07-29T06:47:02;30.30;58.40
27368;DHT22;14839;48.106;11.618;2022-07-29T06:49:27;30.40;56.60
27368;DHT22;14839;48.106;11.618;2022-07-29T06:51:54;30.00;55.70
27368;DHT22;14839;48.106;11.618;2022-07-29T06:54:20;29.80;56.10
27368;DHT22;14839;48.106;11.618;2022-07-29T06:56:45;29.60;59.10
27368;DHT22;14839;48.106;11.618;2022-07-29T06:59:11;29.70;59.40
27368;DHT22;14839;48.106;11.618;2022-07-29T07:01:38;29.80;58.50
27368;DHT22;14839;48.106;11.618;2022-07-29T07:04:04;30.50;57.30
27368;DHT22;14839;48.106;11.618;2022-07-29T07:06:30;32.60;50.40
27368;DHT22;14839;48.106;11.618;2022-07-29T07:08:56;32.00;55.40
27368;DHT22;14839;48.106;11.618;2022-07-29T07:11:21;31.40;55.30
27368;DHT22;14839;48.106;11.618;2022-07-29T07:13:48;30.70;55.00
27368;DHT22;14839;48.106;11.618;2022-07-29T07:16:14;30.40;56.40
27368;DHT22;14839;48.106;11.618;2022-07-29T07:18:39;30.70;55.30
27368;DHT22;14839;48.106;11.618;2022-07-29T07:21:05;30.90;54.80
27368;DHT22;14839;48.106;11.618;2022-07-29T07:23:31;31.30;54.40
27368;DHT22;14839;48.106;11.618;2022-07-29T07:25:56;32.70;49.50
27368;DHT22;14839;48.106;11.618;2022-07-29T07:28:22;32.20;53.80
27368;DHT22;14839;48.106;11.618;2022-07-29T07:30:48;31.30;54.70
27368;DHT22;14839;48.106;11.618;2022-07-29T07:33:14;31.00;57.30
27368;DHT22;14839;48.106;11.618;2022-07-29T07:35:40;31.30;55.80
27368;DHT22;14839;48.106;11.618;2022-07-29T07:38:06;30.60;52.20
27368;DHT22;14839;48.106;11.618;2022-07-29T07:40:32;29.50;55.50
27368;DHT22;14839;48.106;11.618;2022-07-29T07:42:57;29.90;57.20
27368;DHT22;14839;48.106;11.618;2022-07-29T07:45:23;30.50;57.90
27368;DHT22;14839;48.106;11.618;2022-07-29T07:47:49;30.90;53.30
27368;DHT22;14839;48.106;11.618;2022-07-29T07:50:15;31.50;52.20
27368;DHT22;14839;48.106;11.618;2022-07-29T07:52:50;30.90;56.10
27368;DHT22;14839;48.106;11.618;2022-07-29T07:55:17;30.30;56.30
27368;DHT22;14839;48.106;11.618;2022-07-29T07:57:43;30.30;56.60
27368;DHT22;14839;48.106;11.618;2022-07-29T08:00:09;30.90;55.00
27368;DHT22;14839;48.106;11.618;2022-07-29T08:02:34;31.70;51.60
27368;DHT22;14839;48.106;11.618;2022-07-29T08:05:00;31.60;54.20
27368;DHT22;14839;48.106;11.618;2022-07-29T08:07:26;30.70;54.50
27368;DHT22;14839;48.106;11.618;2022-07-29T08:09:51;30.60;54.20
27368;DHT22;14839;48.106;11.618;2022-07-29T08:12:17;30.50;55.30
27368;DHT22;14839;48.106;11.618;2022-07-29T08:14:42;30.90;52.90
27368;DHT22;14839;48.106;11.618;2022-07-29T08:17:08;31.40;51.70
27368;DHT22;14839;48.106;11.618;2022-07-29T08:19:33;31.40;50.80
27368;DHT22;14839;48.106;11.618;2022-07-29T08:21:59;31.30;51.70
27368;DHT22;14839;48.106;11.618;2022-07-29T08:24:25;30.60;55.10
27368;DHT22;14839;48.106;11.618;2022-07-29T08:27:10;30.30;55.00
27368;DHT22;14839;48.106;11.618;2022-07-29T08:29:36;30.30;55.00
27368;DHT22;14839;48.106;11.618;2022-07-29T08:32:03;30.30;53.50
27368;DHT22;14839;48.106;11.618;2022-07-29T08:34:29;30.40;54.80
27368;DHT22;14839;48.106;11.618;2022-07-29T08:36:55;30.70;52.20
27368;DHT22;14839;48.106;11.618;2022-07-29T08:39:22;30.60;53.90
27368;DHT22;14839;48.106;11.618;2022-07-29T08:41:48;30.80;53.60
27368;DHT22;14839;48.106;11.618;2022-07-29T08:44:17;31.10;53.20
27368;DHT22;14839;48.106;11.618;2022-07-29T08:46:43;30.80;56.30
27368;DHT22;14839;48.106;11.618;2022-07-29T08:49:08;30.70;53.20
27368;DHT22;14839;48.106;11.618;2022-07-29T08:51:36;31.10;53.60
27368;DHT22;14839;48.106;11.618;2022-07-29T08:54:04;30.60;53.90
27368;DHT22;14839;48.106;11.618;2022-07-29T08:56:30;30.90;55.30
27368;DHT22;14839;48.106;11.618;2022-07-29T08:58:58;30.30;55.70
27368;DHT22;14839;48.106;11.618;2022-07-29T09:01:25;29.80;55.70
27368;DHT22;14839;48.106;11.618;2022-07-29T09:03:55;29.40;57.80
27368;DHT22;14839;48.106;11.618;2022-07-29T09:06:22;29.60;56.30
27368;DHT22;14839;48.106;11.618;2022-07-29T09:08:51;29.40;56.60
27368;DHT22;14839;48.106;11.618;2022-07-29T09:11:17;29.10;57.90
27368;DHT22;14839;48.106;11.618;2022-07-29T09:13:43;28.90;61.30
27368;DHT22;14839;48.106;11.618;2022-07-29T09:16:08;28.90;58.10
27368;DHT22;14839;48.106;11.618;2022-07-29T09:18:41;28.70;58.50
27368;DHT22;14839;48.106;11.618;2022-07-29T09:21:09;28.50;58.70
27368;DHT22;14839;48.106;11.618;2022-07-29T09:24:00;28.50;60.00
27368;DHT22;14839;48.106;11.618;2022-07-29T09:26:35;29.00;59.80
27368;DHT22;14839;48.106;11.618;2022-07-29T09:29:17;29.30;57.90
27368;DHT22;14839;48.106;11.618;2022-07-29T09:31:46;29.50;58.90
27368;DHT22;14839;48.106;11.618;2022-07-29T09:34:13;29.50;59.40
27368;DHT22;14839;48.106;11.618;2022-07-29T09:36:47;29.30;59.80
27368;DHT22;14839;48.106;11.618;2022-07-29T09:39:14;29.40;60.10
27368;DHT22;14839;48.106;11.618;2022-07-29T09:41:48;30.00;56.40
27368;DHT22;14839;48.106;11.618;2022-07-29T09:44:18;30.20;57.50
27368;DHT22;14839;48.106;11.618;2022-07-29T09:47:04;30.20;58.10
27368;DHT22;14839;48.106;11.618;2022-07-29T09:49:34;30.60;54.70
27368;DHT22;14839;48.106;11.618;2022-07-29T09:52:06;30.30;57.00
27368;DHT22;14839;48.106;11.618;2022-07-29T09:54:32;30.00;57.30
27368;DHT22;14839;48.106;11.618;2022-07-29T09:57:05;29.60;57.90
27368;DHT22;14839;48.106;11.618;2022-07-29T09:59:32;29.40;59.50
27368;DHT22;14839;48.106;11.618;2022-07-29T10:02:00;29.00;60.50
27368;DHT22;14839;48.106;11.618;2022-07-29T10:04:42;28.80;60.20
27368;DHT22;14839;48.106;11.618;2022-07-29T10:07:08;28.60;60.00
27368;DHT22;14839;48.106;11.618;2022-07-29T10:09:35;28.30;63.50
27368;DHT22;14839;48.106;11.618;2022-07-29T10:12:11;28.10;62.30
27368;DHT22;14839;48.106;11.618;2022-07-29T10:14:39;28.00;64.00
27368;DHT22;14839;48.106;11.618;2022-07-29T10:17:06;27.90;64.00
27368;DHT22;14839;48.106;11.618;2022-07-29T10:19:33;27.70;64.60
27368;DHT22;14839;48.106;11.618;2022-07-29T10:21:59;27.60;63.70
27368;DHT22;14839;48.106;11.618;2022-07-29T10:24:26;27.40;65.20
27368;DHT22;14839;48.106;11.618;2022-07-29T10:26:55;27.20;65.90
27368;DHT22;14839;48.106;11.618;2022-07-29T10:29:21;27.10;66.40
27368;DHT22;14839;48.106;11.618;2022-07-29T10:38:15;26.80;67.30
27368;DHT22;14839;48.106;11.618;2022-07-29T10:44:05;26.60;68.30
27368;DHT22;14839;48.106;11.618;2022-07-29T10:46:37;26.50;68.20
27368;DHT22;14839;48.106;11.618;2022-07-29T10:52:06;26.40;69.70
27368;DHT22;14839;48.106;11.618;2022-07-29T10:57:28;26.80;68.60
27368;DHT22;14839;48.106;11.618;2022-07-29T11:08:23;28.50;64.00
27368;DHT22;14839;48.106;11.618;2022-07-29T11:10:51;28.90;62.60
27368;DHT22;14839;48.106;11.618;2022-07-29T11:16:16;29.30;63.40
27368;DHT22;14839;48.106;11.618;2022-07-29T11:21:37;29.80;60.00
27368;DHT22;14839;48.106;11.618;2022-07-29T11:24:18;29.70;62.30
27368;DHT22;14839;48.106;11.618;2022-07-29T11:26:44;29.90;58.80
27368;DHT22;14839;48.106;11.618;2022-07-29T11:29:21;29.60;60.10
27368;DHT22;14839;48.106;11.618;2022-07-29T11:31:51;29.70;59.10
27368;DHT22;14839;48.106;11.618;2022-07-29T11:34:20;29.90;59.20
27368;DHT22;14839;48.106;11.618;2022-07-29T11:37:19;30.00;60.10
27368;DHT22;14839;48.106;11.618;2022-07-29T11:45:11;30.10;57.90
27368;DHT22;14839;48.106;11.618;2022-07-29T11:47:46;30.40;55.50
27368;DHT22;14839;48.106;11.618;2022-07-29T11:50:15;30.50;56.70
27368;DHT22;14839;48.106;11.618;2022-07-29T11:52:43;30.50;55.00
27368;DHT22;14839;48.106;11.618;2022-07-29T11:55:15;30.60;52.30
27368;DHT22;14839;48.106;11.618;2022-07-29T12:00:32;29.80;56.90
27368;DHT22;14839;48.106;11.618;2022-07-29T12:03:00;29.80;55.70
27368;DHT22;14839;48.106;11.618;2022-07-29T12:05:37;29.60;56.10
27368;DHT22;14839;48.106;11.618;2022-07-29T12:08:09;29.50;56.40
27368;DHT22;14839;48.106;11.618;2022-07-29T12:10:35;29.70;57.90
27368;DHT22;14839;48.106;11.618;2022-07-29T12:13:01;29.70;54.70
27368;DHT22;14839;48.106;11.618;2022-07-29T12:15:27;29.50;55.80
27368;DHT22;14839;48.106;11.618;2022-07-29T12:17:53;29.40;57.60
27368;DHT22;14839;48.106;11.618;2022-07-29T12:20:23;29.50;54.80
27368;DHT22;14839;48.106;11.618;2022-07-29T12:22:49;29.30;57.80
27368;DHT22;14839;48.106;11.618;2022-07-29T12:25:15;29.30;56.10
27368;DHT22;14839;48.106;11.618;2022-07-29T12:27:42;29.50;57.50
27368;DHT22;14839;48.106;11.618;2022-07-29T12:30:13;29.50;57.30
27368;DHT22;14839;48.106;11.618;2022-07-29T12:32:42;29.50;55.30
27368;DHT22;14839;48.106;11.618;2022-07-29T12:35:13;29.60;55.30
27368;DHT22;14839;48.106;11.618;2022-07-29T12:37:42;29.40;57.00
27368;DHT22;14839;48.106;11.618;2022-07-29T12:40:10;29.30;53.30
27368;DHT22;14839;48.106;11.618;2022-07-29T12:42:36;29.00;53.20
27368;DHT22;14839;48.106;11.618;2022-07-29T12:45:03;28.80;55.00
27368;DHT22;14839;48.106;11.618;2022-07-29T12:47:29;28.80;55.70
27368;DHT22;14839;48.106;11.618;2022-07-29T12:50:14;28.80;55.10
27368;DHT22;14839;48.106;11.618;2022-07-29T12:52:44;28.90;59.20
27368;DHT22;14839;48.106;11.618;2022-07-29T12:55:10;29.00;56.90
27368;DHT22;14839;48.106;11.618;2022-07-29T12:57:49;29.00;56.10
27368;DHT22;14839;48.106;11.618;2022-07-29T13:00:23;29.00;56.60
27368;DHT22;14839;48.106;11.618;2022-07-29T13:02:58;28.80;57.60
27368;DHT22;14839;48.106;11.618;2022-07-29T13:05:24;28.70;58.70
27368;DHT22;14839;48.106;11.618;2022-07-29T13:08:16;28.40;58.90
27368;DHT22;14839;48.106;11.618;2022-07-29T13:10:42;28.30;58.50
27368;DHT22;14839;48.106;11.618;2022-07-29T13:13:10;28.30;58.40
27368;DHT22;14839;48.106;11.618;2022-07-29T13:15:38;28.30;60.40
27368;DHT22;14839;48.106;11.618;2022-07-29T13:18:05;28.20;62.60
27368;DHT22;14839;48.106;11.618;2022-07-29T13:20:31;28.10;61.10
27368;DHT22;14839;48.106;11.618;2022-07-29T13:22:58;28.20;61.60
27368;DHT22;14839;48.106;11.618;2022-07-29T13:25:29;28.00;62.30
27368;DHT22;14839;48.106;11.618;2022-07-29T13:27:54;27.90;61.70
27368;DHT22;14839;48.106;11.618;2022-07-29T13:30:21;27.90;62.00
27368;DHT22;14839;48.106;11.618;2022-07-29T13:32:47;27.70;62.90
27368;DHT22;14839;48.106;11.618;2022-07-29T13:35:13;27.60;62.60
27368;DHT22;14839;48.106;11.618;2022-07-29T13:37:39;27.30;63.20
27368;DHT22;14839;48.106;11.618;2022-07-29T13:40:09;27.10;64.00
27368;DHT22;14839;48.106;11.618;2022-07-29T13:42:35;27.00;63.40
27368;DHT22;14839;48.106;11.618;2022-07-29T13:45:01;26.90;64.00
27368;DHT22;14839;48.106;11.618;2022-07-29T13:47:27;26.80;65.60
27368;DHT22;14839;48.106;11.618;2022-07-29T13:49:54;26.60;67.70
27368;DHT22;14839;48.106;11.618;2022-07-29T13:52:20;26.40;67.10
27368;DHT22;14839;48.106;11.618;2022-07-29T13:54:46;26.40;66.70
27368;DHT22;14839;48.106;11.618;2022-07-29T13:57:12;26.30;68.00
27368;DHT22;14839;48.106;11.618;2022-07-29T13:59:40;26.30;67.60
27368;DHT22;14839;48.106;11.618;2022-07-29T14:02:06;26.30;68.50
27368;DHT22;14839;48.106;11.618;2022-07-29T14:04:32;26.30;68.80
27368;DHT22;14839;48.106;11.618;2022-07-29T14:06:58;26.40;67.30
27368;DHT22;14839;48.106;11.618;2022-07-29T14:09:24;26.50;67.00
27368;DHT22;14839;48.106;11.618;2022-07-29T14:11:49;26.60;67.90
27368;DHT22;14839;48.106;11.618;2022-07-29T14:14:17;26.60;66.80
27368;DHT22;14839;48.106;11.618;2022-07-29T14:16:42;26.60;68.80
27368;DHT22;14839;48.106;11.618;2022-07-29T14:19:08;26.70;67.30
27368;DHT22;14839;48.106;11.618;2022-07-29T14:21:34;26.70;66.50
27368;DHT22;14839;48.106;11.618;2022-07-29T14:24:00;26.80;66.80
27368;DHT22;14839;48.106;11.618;2022-07-29T14:26:25;26.90;67.30
27368;DHT22;14839;48.106;11.618;2022-07-29T14:28:51;27.00;67.70
27368;DHT22;14839;48.106;11.618;2022-07-29T14:31:17;27.10;66.40
27368;DHT22;14839;48.106;11.618;2022-07-29T14:33:42;27.20;65.50
27368;DHT22;14839;48.106;11.618;2022-07-29T14:36:08;27.10;66.80
27368;DHT22;14839;48.106;11.618;2022-07-29T14:38:35;27.10;66.50
27368;DHT22;14839;48.106;11.618;2022-07-29T14:41:00;27.00;67.40
27368;DHT22;14839;48.106;11.618;2022-07-29T14:43:26;27.00;67.00
27368;DHT22;14839;48.106;11.618;2022-07-29T14:45:52;27.00;66.10
27368;DHT22;14839;48.106;11.618;2022-07-29T14:48:18;27.00;66.20
27368;DHT22;14839;48.106;11.618;2022-07-29T14:50:43;27.00;66.40
27368;DHT22;14839;48.106;11.618;2022-07-29T14:53:09;27.10;65.20
27368;DHT22;14839;48.106;11.618;2022-07-29T14:55:35;27.00;64.70
27368;DHT22;14839;48.106;11.618;2022-07-29T14:58:01;26.90;64.40
27368;DHT22;14839;48.106;11.618;2022-07-29T15:00:26;26.90;65.60
27368;DHT22;14839;48.106;11.618;2022-07-29T15:02:52;26.80;65.50
27368;DHT22;14839;48.106;11.618;2022-07-29T15:05:17;26.70;66.10
27368;DHT22;14839;48.106;11.618;2022-07-29T15:07:43;26.60;66.50
27368;DHT22;14839;48.106;11.618;2022-07-29T15:10:09;26.60;66.80
27368;DHT22;14839;48.106;11.618;2022-07-29T15:12:35;26.60;65.60
27368;DHT22;14839;48.106;11.618;2022-07-29T15:15:00;26.60;66.70
27368;DHT22;14839;48.106;11.618;2022-07-29T15:17:29;26.60;67.00
27368;DHT22;14839;48.106;11.618;2022-07-29T15:19:54;26.60;66.20
27368;DHT22;14839;48.106;11.618;2022-07-29T15:22:20;26.50;66.50
27368;DHT22;14839;48.106;11.618;2022-07-29T15:24:45;26.40;66.20
27368;DHT22;14839;48.106;11.618;2022-07-29T15:27:11;26.30;67.60
27368;DHT22;14839;48.106;11.618;2022-07-29T15:29:40;26.30;66.80
27368;DHT22;14839;48.106;11.618;2022-07-29T15:32:06;26.10;67.60
27368;DHT22;14839;48.106;11.618;2022-07-29T15:34:33;26.10;68.20
27368;DHT22;14839;48.106;11.618;2022-07-29T15:36:58;26.00;67.00
27368;DHT22;14839;48.106;11.618;2022-07-29T15:39:24;25.90;67.40
27368;DHT22;14839;48.106;11.618;2022-07-29T15:41:50;25.80;69.10
27368;DHT22;14839;48.106;11.618;2022-07-29T15:44:16;25.70;68.30
27368;DHT22;14839;48.106;11.618;2022-07-29T15:46:42;25.80;68.50
27368;DHT22;14839;48.106;11.618;2022-07-29T15:49:26;25.70;69.20
27368;DHT22;14839;48.106;11.618;2022-07-29T15:52:00;25.70;70.30
27368;DHT22;14839;48.106;11.618;2022-07-29T15:54:27;25.60;70.40
27368;DHT22;14839;48.106;11.618;2022-07-29T15:56:53;25.50;70.90
27368;DHT22;14839;48.106;11.618;2022-07-29T15:59:19;25.50;71.60
27368;DHT22;14839;48.106;11.618;2022-07-29T16:01:45;25.40;71.90
27368;DHT22;14839;48.106;11.618;2022-07-29T16:04:10;25.30;72.50
27368;DHT22;14839;48.106;11.618;2022-07-29T16:06:36;25.10;73.40
27368;DHT22;14839;48.106;11.618;2022-07-29T16:09:39;25.00;74.50
27368;DHT22;14839;48.106;11.618;2022-07-29T16:12:04;24.90;75.40
27368;DHT22;14839;48.106;11.618;2022-07-29T16:14:30;24.70;75.70
27368;DHT22;14839;48.106;11.618;2022-07-29T16:16:56;24.70;75.40
27368;DHT22;14839;48.106;11.618;2022-07-29T16:19:22;24.60;75.50
27368;DHT22;14839;48.106;11.618;2022-07-29T16:21:47;24.50;76.00
27368;DHT22;14839;48.106;11.618;2022-07-29T16:24:13;24.40;76.30
27368;DHT22;14839;48.106;11.618;2022-07-29T16:26:39;24.40;76.90
27368;DHT22;14839;48.106;11.618;2022-07-29T16:29:04;24.30;77.80
27368;DHT22;14839;48.106;11.618;2022-07-29T16:31:30;24.30;77.60
27368;DHT22;14839;48.106;11.618;2022-07-29T16:33:56;24.30;78.40
27368;DHT22;14839;48.106;11.618;2022-07-29T16:36:21;24.20;78.50
27368;DHT22;14839;48.106;11.618;2022-07-29T16:38:47;24.20;78.70
27368;DHT22;14839;48.106;11.618;2022-07-29T16:41:13;24.20;79.10
27368;DHT22;14839;48.106;11.618;2022-07-29T16:43:39;24.00;79.70
27368;DHT22;14839;48.106;11.618;2022-07-29T16:46:08;24.00;79.90
27368;DHT22;14839;48.106;11.618;2022-07-29T16:48:34;23.90;80.60
27368;DHT22;14839;48.106;11.618;2022-07-29T16:51:00;24.00;80.20
27368;DHT22;14839;48.106;11.618;2022-07-29T16:53:25;24.00;80.60
27368;DHT22;14839;48.106;11.618;2022-07-29T16:55:51;24.00;79.90
27368;DHT22;14839;48.106;11.618;2022-07-29T16:58:17;23.90;80.30
27368;DHT22;14839;48.106;11.618;2022-07-29T17:00:42;23.90;80.00
27368;DHT22;14839;48.106;11.618;2022-07-29T17:06:39;23.80;81.10
27368;DHT22;14839;48.106;11.618;2022-07-29T17:09:09;23.80;81.10
27368;DHT22;14839;48.106;11.618;2022-07-29T17:11:45;23.80;81.50
27368;DHT22;14839;48.106;11.618;2022-07-29T17:14:17;23.60;82.10
27368;DHT22;14839;48.106;11.618;2022-07-29T17:16:43;23.50;81.50
27368;DHT22;14839;48.106;11.618;2022-07-29T17:19:08;23.30;79.90
27368;DHT22;14839;48.106;11.618;2022-07-29T17:21:34;23.10;80.90
27368;DHT22;14839;48.106;11.618;2022-07-29T17:24:00;23.00;82.70
27368;DHT22;14839;48.106;11.618;2022-07-29T17:26:25;23.00;83.20
27368;DHT22;14839;48.106;11.618;2022-07-29T17:28:52;22.90;84.80
27368;DHT22;14839;48.106;11.618;2022-07-29T17:31:17;22.90;86.80
27368;DHT22;14839;48.106;11.618;2022-07-29T17:33:43;22.80;89.00
27368;DHT22;14839;48.106;11.618;2022-07-29T17:36:09;22.70;88.60
27368;DHT22;14839;48.106;11.618;2022-07-29T17:38:50;22.60;87.10
27368;DHT22;14839;48.106;11.618;2022-07-29T17:41:17;22.50;87.70
27368;DHT22;14839;48.106;11.618;2022-07-29T17:43:42;22.40;87.70
27368;DHT22;14839;48.106;11.618;2022-07-29T17:46:08;22.30;87.50
27368;DHT22;14839;48.106;11.618;2022-07-29T17:48:43;22.30;87.40
27368;DHT22;14839;48.106;11.618;2022-07-29T17:51:09;22.20;84.80
27368;DHT22;14839;48.106;11.618;2022-07-29T17:53:36;22.10;84.10
27368;DHT22;14839;48.106;11.618;2022-07-29T17:56:02;22.00;84.10
27368;DHT22;14839;48.106;11.618;2022-07-29T17:58:29;21.80;85.60
27368;DHT22;14839;48.106;11.618;2022-07-29T18:01:32;21.60;87.10
27368;DHT22;14839;48.106;11.618;2022-07-29T18:03:58;21.30;87.80
27368;DHT22;14839;48.106;11.618;2022-07-29T18:06:24;21.20;87.70
27368;DHT22;14839;48.106;11.618;2022-07-29T18:08:50;20.80;87.20
27368;DHT22;14839;48.106;11.618;2022-07-29T18:11:15;20.70;88.40
27368;DHT22;14839;48.106;11.618;2022-07-29T18:13:41;20.50;89.00
27368;DHT22;14839;48.106;11.618;2022-07-29T18:16:07;20.50;89.90
27368;DHT22;14839;48.106;11.618;2022-07-29T18:18:34;20.50;89.80
27368;DHT22;14839;48.106;11.618;2022-07-29T18:21:00;20.50;90.10
27368;DHT22;14839;48.106;11.618;2022-07-29T18:23:26;20.50;89.80
27368;DHT22;14839;48.106;11.618;2022-07-29T18:25:52;20.40;89.30
27368;DHT22;14839;48.106;11.618;2022-07-29T18:28:18;20.40;89.20
27368;DHT22;14839;48.106;11.618;2022-07-29T18:30:44;20.30;89.90
27368;DHT22;14839;48.106;11.618;2022-07-29T18:33:10;20.30;89.90
27368;DHT22;14839;48.106;11.618;2022-07-29T18:35:39;20.20;90.30
27368;DHT22;14839;48.106;11.618;2022-07-29T18:38:05;20.20;90.30
27368;DHT22;14839;48.106;11.618;2022-07-29T18:40:31;20.20;90.10
27368;DHT22;14839;48.106;11.618;2022-07-29T18:42:56;20.20;90.10
27368;DHT22;14839;48.106;11.618;2022-07-29T18:45:23;20.20;90.10
27368;DHT22;14839;48.106;11.618;2022-07-29T18:48:04;20.10;90.20
27368;DHT22;14839;48.106;11.618;2022-07-29T18:50:30;20.10;90.80
27368;DHT22;14839;48.106;11.618;2022-07-29T18:52:57;20.10;90.90
27368;DHT22;14839;48.106;11.618;2022-07-29T18:55:23;20.00;90.90
27368;DHT22;14839;48.106;11.618;2022-07-29T18:57:50;20.00;91.60
27368;DHT22;14839;48.106;11.618;2022-07-29T19:00:15;19.90;92.20
27368;DHT22;14839;48.106;11.618;2022-07-29T19:02:41;19.90;93.00
27368;DHT22;14839;48.106;11.618;2022-07-29T19:05:08;19.80;93.40
27368;DHT22;14839;48.106;11.618;2022-07-29T19:07:34;19.70;93.60
27368;DHT22;14839;48.106;11.618;2022-07-29T19:10:00;19.70;94.00
27368;DHT22;14839;48.106;11.618;2022-07-29T19:12:26;19.60;94.60
27368;DHT22;14839;48.106;11.618;2022-07-29T19:14:51;19.50;94.60
27368;DHT22;14839;48.106;11.618;2022-07-29T19:17:17;19.40;94.60
27368;DHT22;14839;48.106;11.618;2022-07-29T19:19:43;19.30;94.60
27368;DHT22;14839;48.106;11.618;2022-07-29T19:22:08;19.20;94.60
27368;DHT22;14839;48.106;11.618;2022-07-29T19:24:34;19.10;94.60
27368;DHT22;14839;48.106;11.618;2022-07-29T19:27:00;19.00;94.60
27368;DHT22;14839;48.106;11.618;2022-07-29T19:29:25;18.90;94.60
27368;DHT22;14839;48.106;11.618;2022-07-29T19:31:52;18.80;94.60
27368;DHT22;14839;48.106;11.618;2022-07-29T19:34:17;18.70;94.60
27368;DHT22;14839;48.106;11.618;2022-07-29T19:36:43;18.60;94.60
27368;DHT22;14839;48.106;11.618;2022-07-29T19:39:09;18.60;94.60
27368;DHT22;14839;48.106;11.618;2022-07-29T19:41:35;18.50;94.60
27368;DHT22;14839;48.106;11.618;2022-07-29T19:44:00;18.40;94.60
27368;DHT22;14839;48.106;11.618;2022-07-29T19:46:26;18.40;94.60
27368;DHT22;14839;48.106;11.618;2022-07-29T19:48:54;18.40;94.60
27368;DHT22;14839;48.106;11.618;2022-07-29T19:51:20;18.30;94.60
27368;DHT22;14839;48.106;11.618;2022-07-29T19:53:46;18.20;94.60
27368;DHT22;14839;48.106;11.618;2022-07-29T19:56:12;18.20;94.60
27368;DHT22;14839;48.106;11.618;2022-07-29T19:58:38;18.10;94.60